Mobile Regional Airport Mobile US
ICAO: KMOB
IATA: MOB
Category: Large
Scheduled Services: Yes

Elevation: 219 ft
TransAlt. 18000 ft.

Airport Communications:
APP/DEP:118.5
ATIS:124.75
CLNC DEL:119.85
CTAF:118.3
GND:121.9
ARNG OPS:41.05
AIR:34.5
ANNISTON RDO:122.2
TWR:118.3
UNICOM:122.95

KMOB Zoom In..

If you have problems with the map follow the link
https://www.worldairports.se/pages/airport.php?
ICAO=KMOB

Runways:

(A) RW 14 length 8502 ft width 150 ft
ILS 109.90 / hdg 145

(B) RW 18 length 4376 ft width 150 ft
---- / hdg 181

(C) RW 32 length 8502 ft width 150 ft
ILS 111.50 / hdg 325

(D) RW 36 length 4376 ft width 150 ft
---- / hdg 1

Location; KMOB
Day. 18 / Time. 21.56 Zulu
* Altimeter: 30.03
* Temperature: 21° c. 69.8°f.
* Wind from: 220° Speed 06 kn.
Dewpoint: 14° c.
Visibility: 10 Statute Miles.
Clouds: Few 2500 ft.
Clouds: Scattered 1000 ft.
Clouds: Scattered 25000 ft.

KMOB 182156Z 22006KT 10SM FEW025 SCT100 SCT250 21/14 A3003 RMK AO2 SLP167 T02110144


Wind From 220°
Speed 06 kn.

 
 
jpsmedia.com for Web Design worldairports.se 2019   terms of use